Terminal Aerodrome Forecast
Issued by NWS

Home | Current Version | Previous Version | Text Only | Print | Product List | Glossary On
Versions: 1 2 3 4 5 6 7 8 9 10 11 12 13 14 15 16 17 18 19 20 21 22 23
624
FTUS45 KRIW 011227 AAA
TAFRKS
TAF AMD
KRKS 011227Z 0112/0212 07024G32KT P6SM FEW025 SCT040
     FM020300 07014KT P6SM SCT080=

USA.gov is the U.S. government's official web portal to all federal, state and local government web resources and services.